Time;durP1;ratioP1;P1;durP2;ratioP2;P2;SDS_P1;SDS_P2;PMS_P1;PMS_P2;Temp;Humidity;BMP_temperature;BMP_pressure;BME280_temperature;BME280_humidity;BME280_pressure;Samples;Min_cycle;Max_cycle;Signal;HPM_P1;HPM_P2
2022/07/17 00:00:45;;;;;;;;;;;;;;;15.53;100.00;99499.58;1754929;82;20074;-73
2022/07/17 00:03:13;;;;;;;;;;;;;;;15.53;100.00;99500.16;1754994;82;20471;-73
2022/07/17 00:05:39;;;;;;;;;;;;;;;15.53;100.00;99486.31;1755177;82;20434;-73
2022/07/17 00:08:06;;;;;;;;;;;;;;;15.53;100.00;99481.59;1755044;82;21547;-73
2022/07/17 00:10:37;;;;;;;;;;;;;;;15.54;100.00;99490.70;1754890;82;20150;-72
2022/07/17 00:13:04;;;;;;;;;;;;;;;15.53;100.00;99494.05;1755250;82;20103;-73
2022/07/17 00:15:31;;;;;;;;;;;;;;;15.53;100.00;99482.17;1753136;82;20297;-73
2022/07/17 00:17:58;;;;;;;;;;;;;;;15.52;100.00;99481.36;1754965;81;20462;-72
2022/07/17 00:20:27;;;;;;;;;;;;;;;15.52;100.00;99481.36;1755321;82;21087;-72
2022/07/17 00:22:54;;;;;;;;;;;;;;;15.52;100.00;99480.56;1754255;82;20453;-72
2022/07/17 00:25:22;;;;;;;;;;;;;;;15.53;100.00;99489.09;1755187;82;20150;-72
2022/07/17 00:27:48;;;;;;;;;;;;;;;15.52;100.00;99485.52;1753411;82;20465;-73
2022/07/17 00:30:16;;;;;;;;;;;;;;;15.50;100.00;99478.72;1728226;82;20083;-73
2022/07/17 00:32:43;;;;;;;;;;;;;;;15.46;100.00;99473.08;1728180;83;21028;-73
2022/07/17 00:35:09;;;;;;;;;;;;;;;15.43;100.00;99484.84;1728309;83;20155;-73
2022/07/17 00:37:43;;;;;;;;;;;;;;;15.42;100.00;99489.34;1728140;83;20083;-73
2022/07/17 00:40:12;;;;;;;;;;;;;;;15.38;100.00;99482.32;1727987;83;20478;-72
2022/07/17 00:42:42;;;;;;;;;;;;;;;15.35;100.00;99467.80;1727912;82;20071;-72
2022/07/17 00:45:10;;;;;;;;;;;;;;;15.31;100.00;99473.80;1728209;83;21145;-73
2022/07/17 00:47:55;;;;;;;;;;;;;;;15.28;100.00;99484.18;1727807;83;20425;-73
2022/07/17 00:50:24;;;;;;;;;;;;;;;15.29;100.00;99480.84;1727951;83;20453;-73
2022/07/17 00:52:51;;;;;;;;;;;;;;;15.31;100.00;99469.66;1728047;83;20423;-73
2022/07/17 00:55:17;;;;;;;;;;;;;;;15.32;100.00;99475.99;1727731;83;20115;-73
2022/07/17 00:57:46;;;;;;;;;;;;;;;15.30;100.00;99479.69;1727979;82;21493;-73
2022/07/17 01:00:13;;;;;;;;;;;;;;;15.29;100.00;99481.64;1728146;83;20126;-73
2022/07/17 01:02:40;;;;;;;;;;;;;;;15.29;100.00;99483.60;1728079;82;20075;-72
2022/07/17 01:05:06;;;;;;;;;;;;;;;15.29;100.00;99489.13;1728098;83;20095;-72
2022/07/17 01:07:33;;;;;;;;;;;;;;;15.29;100.00;99490.52;1728264;83;20112;-73
2022/07/17 01:10:00;;;;;;;;;;;;;;;15.28;100.00;99492.47;1728192;83;21455;-72
2022/07/17 01:12:26;;;;;;;;;;;;;;;15.23;100.00;99484.41;1728021;83;20409;-72
2022/07/17 01:14:53;;;;;;;;;;;;;;;15.20;100.00;99475.44;1728161;83;20150;-73
2022/07/17 01:17:19;;;;;;;;;;;;;;;15.17;100.00;99477.52;1728043;83;20098;-73
2022/07/17 01:19:46;;;;;;;;;;;;;;;15.15;100.00;99481.20;1727960;83;20111;-73
2022/07/17 01:22:12;;;;;;;;;;;;;;;15.14;100.00;99482.36;1727874;83;21147;-73
2022/07/17 01:24:40;;;;;;;;;;;;;;;15.14;100.00;99479.02;1727810;83;20147;-73
2022/07/17 01:27:07;;;;;;;;;;;;;;;15.18;100.00;99480.50;1726732;83;32390;-73
2022/07/17 01:29:37;;;;;;;;;;;;;;;15.18;100.00;99475.78;1727843;82;20095;-74
2022/07/17 01:32:05;;;;;;;;;;;;;;;15.19;100.00;99476.01;1728093;83;20119;-73
2022/07/17 01:34:32;;;;;;;;;;;;;;;15.20;100.00;99474.86;1727912;83;21769;-73
2022/07/17 01:36:59;;;;;;;;;;;;;;;15.20;100.00;99465.18;1728212;82;20111;-73
2022/07/17 01:42:10;;;;;;;;;;;;;;;15.17;100.00;99472.79;1728399;83;20087;-73
2022/07/17 01:44:36;;;;;;;;;;;;;;;15.14;100.00;99461.04;1727964;82;20429;-73
2022/07/17 01:47:04;;;;;;;;;;;;;;;15.11;100.00;99458.97;1727988;83;21092;-73
2022/07/17 01:49:30;;;;;;;;;;;;;;;15.09;100.00;99451.60;1727832;83;20167;-73
2022/07/17 01:51:59;;;;;;;;;;;;;;;15.08;100.00;99454.14;1727771;82;20433;-73
2022/07/17 01:54:26;;;;;;;;;;;;;;;15.04;100.00;99458.75;1727670;83;20413;-72
2022/07/17 01:56:55;;;;;;;;;;;;;;;15.01;100.00;99448.41;1727969;83;20410;-72
2022/07/17 01:59:21;;;;;;;;;;;;;;;14.99;100.00;99444.39;1727974;83;21156;-73
2022/07/17 02:01:47;;;;;;;;;;;;;;;14.95;100.00;99449.00;1728306;83;20107;-72
2022/07/17 02:04:14;;;;;;;;;;;;;;;14.92;100.00;99444.97;1727822;83;20147;-72
2022/07/17 02:06:40;;;;;;;;;;;;;;;14.88;100.00;99437.72;1727810;83;20205;-72
2022/07/17 02:09:07;;;;;;;;;;;;;;;14.85;100.00;99439.22;1728344;82;20429;-72
2022/07/17 02:11:33;;;;;;;;;;;;;;;14.82;100.00;99454.53;1727830;83;21533;-72
2022/07/17 02:14:00;;;;;;;;;;;;;;;14.81;100.00;99457.06;1727961;83;20107;-72
2022/07/17 02:16:27;;;;;;;;;;;;;;;14.79;100.00;99455.22;1727744;83;20119;-72
2022/07/17 02:18:54;;;;;;;;;;;;;;;14.80;100.00;99451.87;1727754;82;20259;-72
2022/07/17 02:21:22;;;;;;;;;;;;;;;14.80;100.00;99438.88;1727739;83;20154;-72
2022/07/17 02:23:48;;;;;;;;;;;;;;;14.79;100.00;99439.22;1727874;82;21196;-72
2022/07/17 02:26:16;;;;;;;;;;;;;;;14.78;100.00;99434.84;1728238;82;20126;-72
2022/07/17 02:28:43;;;;;;;;;;;;;;;14.76;100.00;99425.52;1730460;82;20187;-73
2022/07/17 02:31:10;;;;;;;;;;;;;;;14.74;100.00;99441.64;1744445;81;20170;-73
2022/07/17 02:33:36;;;;;;;;;;;;;;;14.70;100.00;99444.86;1744487;81;20414;-72
2022/07/17 02:36:03;;;;;;;;;;;;;;;14.71;100.00;99432.66;1744181;82;21554;-72
2022/07/17 02:38:29;;;;;;;;;;;;;;;14.73;100.00;99434.50;1744348;81;20130;-73
2022/07/17 02:40:56;;;;;;;;;;;;;;;14.69;100.00;99439.10;1741920;82;20180;-73
2022/07/17 02:43:22;;;;;;;;;;;;;;;14.67;100.00;99430.35;1706642;84;20121;-72
2022/07/17 02:45:48;;;;;;;;;;;;;;;14.66;100.00;99434.84;1707038;83;20102;-73
2022/07/17 02:48:15;;;;;;;;;;;;;;;14.70;100.00;99435.77;1740423;82;21071;-73
2022/07/17 02:50:42;;;;;;;;;;;;;;;14.80;100.00;99431.16;1722902;82;20094;-73
2022/07/17 02:53:08;;;;;;;;;;;;;;;14.80;100.00;99425.62;1707063;84;20097;-72
2022/07/17 02:55:35;;;;;;;;;;;;;;;14.75;100.00;99423.91;1706804;83;20137;-72
2022/07/17 02:58:02;;;;;;;;;;;;;;;14.70;100.00;99429.66;1720358;82;20119;-72
2022/07/17 03:00:28;;;;;;;;;;;;;;;14.63;100.00;99438.30;1744219;82;21542;-72
2022/07/17 03:02:57;;;;;;;;;;;;;;;14.56;100.00;99438.06;1744509;82;20135;-71
2022/07/17 03:05:23;;;;;;;;;;;;;;;14.49;100.00;99447.72;1744504;82;20107;-71
2022/07/17 03:07:50;;;;;;;;;;;;;;;14.42;100.00;99437.85;1744509;82;20725;-71
2022/07/17 03:10:16;;;;;;;;;;;;;;;14.37;100.00;99442.76;1744162;82;20115;-70
2022/07/17 03:12:42;;;;;;;;;;;;;;;14.32;100.00;99440.22;1743063;82;21126;-70
2022/07/17 03:15:10;;;;;;;;;;;;;;;14.26;100.00;99442.39;1743774;82;20075;-78
2022/07/17 03:17:38;;;;;;;;;;;;;;;14.19;100.00;99436.05;1744277;82;20079;-75
2022/07/17 03:20:06;;;;;;;;;;;;;;;14.12;100.00;99436.38;1744041;82;20094;-76
2022/07/17 03:22:33;;;;;;;;;;;;;;;14.05;100.00;99427.28;1744560;82;20118;-75
2022/07/17 03:24:59;;;;;;;;;;;;;;;14.01;100.00;99422.78;1744120;82;21111;-78
2022/07/17 03:27:26;;;;;;;;;;;;;;;13.94;100.00;99417.82;1741681;82;20171;-80
2022/07/17 03:29:53;;;;;;;;;;;;;;;13.92;100.00;99424.83;1749301;82;20126;-72
2022/07/17 03:32:20;;;;;;;;;;;;;;;13.88;100.00;99426.08;1754600;82;20083;-81
2022/07/17 03:34:47;;;;;;;;;;;;;;;13.86;100.00;99428.41;1754783;82;20162;-75
2022/07/17 03:37:15;;;;;;;;;;;;;;;13.82;100.00;99432.41;1754673;82;20267;-72
2022/07/17 03:39:42;;;;;;;;;;;;;;;13.80;100.00;99431.95;1754644;82;20134;-69
2022/07/17 03:42:09;;;;;;;;;;;;;;;13.81;100.00;99428.05;1754706;82;20084;-70
2022/07/17 03:44:35;;;;;;;;;;;;;;;13.86;100.00;99437.45;1753839;82;20213;-70
2022/07/17 03:47:02;;;;;;;;;;;;;;;13.92;100.00;99433.11;1755062;82;20430;-77
2022/07/17 03:49:29;;;;;;;;;;;;;;;13.99;100.00;99430.59;1754806;82;21609;-70
2022/07/17 03:51:55;;;;;;;;;;;;;;;14.09;100.00;99434.30;1754610;81;20436;-81
2022/07/17 03:54:22;;;;;;;;;;;;;;;14.20;100.00;99432.72;1754781;82;20094;-73
2022/07/17 03:56:49;;;;;;;;;;;;;;;14.31;100.00;99429.75;1754640;82;20126;-77
2022/07/17 03:59:15;;;;;;;;;;;;;;;14.48;100.00;99432.88;1755066;82;20102;-80
2022/07/17 04:01:42;;;;;;;;;;;;;;;14.66;100.00;99431.50;1755070;82;21109;-80
2022/07/17 04:04:08;;;;;;;;;;;;;;;14.83;100.00;99430.47;1754692;82;20142;-79
2022/07/17 04:06:34;;;;;;;;;;;;;;;15.01;100.00;99430.45;1755085;82;20175;-78
2022/07/17 04:09:01;;;;;;;;;;;;;;;15.19;100.00;99430.97;1755098;82;20095;-85
2022/07/17 04:11:27;;;;;;;;;;;;;;;15.33;100.00;99435.54;1729016;82;20151;-88
2022/07/17 04:13:54;;;;;;;;;;;;;;;15.47;100.00;99440.69;1755352;81;21786;-85
2022/07/17 04:16:21;;;;;;;;;;;;;;;15.60;100.00;99442.27;1754584;82;20114;-82
2022/07/17 04:18:47;;;;;;;;;;;;;;;15.71;100.00;99435.07;1754615;82;20633;-89
2022/07/17 04:21:14;;;;;;;;;;;;;;;15.81;100.00;99442.88;1754565;82;20122;-80
2022/07/17 04:23:41;;;;;;;;;;;;;;;15.88;100.00;99455.30;1753784;82;20173;-81
2022/07/17 04:26:07;;;;;;;;;;;;;;;15.92;100.00;99461.16;1754228;82;21163;-83
2022/07/17 04:28:33;;;;;;;;;;;;;;;15.94;100.00;99456.08;1754525;81;20210;-82
2022/07/17 04:31:01;;;;;;;;;;;;;;;15.97;100.00;99462.88;1731661;82;20213;-88
2022/07/17 04:33:28;;;;;;;;;;;;;;;16.02;100.00;99466.77;1727591;83;20095;-85
2022/07/17 04:35:55;;;;;;;;;;;;;;;16.04;100.00;99457.53;1727779;81;20095;-81
2022/07/17 04:38:22;;;;;;;;;;;;;;;16.07;100.00;99463.74;1727723;82;21650;-86
2022/07/17 04:40:48;;;;;;;;;;;;;;;16.12;100.00;99463.48;1727608;83;20111;-88
2022/07/17 04:43:15;;;;;;;;;;;;;;;16.17;100.00;99471.54;1727761;83;20095;-81
2022/07/17 04:45:41;;;;;;;;;;;;;;;16.21;100.00;99475.17;1727414;82;20162;-82
2022/07/17 04:48:07;;;;;;;;;;;;;;;16.27;100.00;99472.95;1728075;82;20142;-85
2022/07/17 04:50:35;;;;;;;;;;;;;;;16.31;100.00;99470.50;1719116;82;21137;-84
2022/07/17 04:53:02;;;;;;;;;;;;;;;16.39;100.00;99468.14;1698790;83;20113;-81
2022/07/17 04:55:28;;;;;;;;;;;;;;;16.47;100.00;99468.55;1698559;84;20141;-82
2022/07/17 04:57:55;;;;;;;;;;;;;;;16.58;100.00;99472.18;1698586;84;20132;-82
2022/07/17 05:00:21;;;;;;;;;;;;;;;16.67;97.92;99477.80;1698619;83;20449;-79
2022/07/17 05:02:48;;;;;;;;;;;;;;;16.64;93.83;99484.06;1698415;84;21216;-79
2022/07/17 05:05:15;;;;;;;;;;;;;;;16.56;91.73;99481.43;1698657;84;20089;-81
2022/07/17 05:07:44;;;;;;;;;;;;;;;16.46;90.99;99484.95;1698560;84;20174;-76
2022/07/17 05:10:11;;;;;;;;;;;;;;;16.37;89.04;99485.70;1698623;84;20085;-86
2022/07/17 05:12:38;;;;;;;;;;;;;;;16.22;88.19;99487.06;1698463;84;20190;-76
2022/07/17 05:15:06;;;;;;;;;;;;;;;16.05;87.62;99497.91;1698442;84;21517;-86
2022/07/17 05:17:33;;;;;;;;;;;;;;;15.91;87.26;99494.16;1698412;84;20113;-86
2022/07/17 05:20:00;;;;;;;;;;;;;;;15.75;87.23;99484.98;1698934;84;20121;-88
2022/07/17 05:22:27;;;;;;;;;;;;;;;15.59;87.71;99478.61;1698524;84;20121;-83
2022/07/17 05:24:53;;;;;;;;;;;;;;;15.43;88.65;99497.87;1698538;84;20613;-80
2022/07/17 05:27:21;;;;;;;;;;;;;;;15.32;89.87;99493.97;1698622;83;21157;-75
2022/07/17 05:29:48;;;;;;;;;;;;;;;15.27;90.79;99496.97;1678178;84;20113;-75
2022/07/17 05:32:14;;;;;;;;;;;;;;;15.33;90.11;99498.34;1698549;84;20102;-75
2022/07/17 05:34:41;;;;;;;;;;;;;;;15.46;88.18;99494.41;1698402;84;20202;-77
2022/07/17 05:37:07;;;;;;;;;;;;;;;15.61;87.31;99513.63;1698145;84;20145;-80
2022/07/17 05:39:35;;;;;;;;;;;;;;;15.74;85.78;99513.81;1698106;84;21134;-79
2022/07/17 05:42:02;;;;;;;;;;;;;;;15.89;82.68;99520.00;1698352;84;20230;-72
2022/07/17 05:44:28;;;;;;;;;;;;;;;15.99;78.84;99521.46;1698426;84;20097;-79
2022/07/17 05:46:56;;;;;;;;;;;;;;;16.03;80.04;99532.87;1698453;84;21025;-75
2022/07/17 05:49:22;;;;;;;;;;;;;;;16.03;79.74;99546.71;1698726;84;20160;-77
2022/07/17 05:51:50;;;;;;;;;;;;;;;15.99;80.01;99548.57;1698597;84;21245;-78
2022/07/17 05:54:17;;;;;;;;;;;;;;;16.04;79.70;99551.67;1698451;84;20158;-81
2022/07/17 05:56:43;;;;;;;;;;;;;;;16.03;79.19;99550.86;1698238;83;20125;-78
2022/07/17 05:59:10;;;;;;;;;;;;;;;15.99;79.79;99549.15;1698133;84;20145;-78
2022/07/17 06:01:37;;;;;;;;;;;;;;;16.07;80.10;99537.13;1698339;84;20089;-76
2022/07/17 06:04:03;;;;;;;;;;;;;;;16.16;80.98;99537.78;1698256;84;21207;-80
2022/07/17 06:06:30;;;;;;;;;;;;;;;16.17;80.18;99536.63;1698398;83;20460;-89
2022/07/17 06:08:57;;;;;;;;;;;;;;;16.05;79.90;99526.98;1698620;84;20420;-85
2022/07/17 06:11:23;;;;;;;;;;;;;;;15.91;80.88;99533.48;1698466;84;20212;-76
2022/07/17 06:13:50;;;;;;;;;;;;;;;15.74;81.63;99542.30;1698716;83;20175;-77
2022/07/17 06:16:18;;;;;;;;;;;;;;;15.51;82.39;99552.26;1697998;84;21149;-73
2022/07/17 06:18:45;;;;;;;;;;;;;;;15.23;85.11;99546.64;1697171;84;20196;-81
2022/07/17 06:21:11;;;;;;;;;;;;;;;14.98;87.17;99559.68;1697225;84;20443;-77
2022/07/17 06:23:38;;;;;;;;;;;;;;;14.74;88.57;99559.64;1697256;84;20180;-88
2022/07/17 06:26:05;;;;;;;;;;;;;;;14.51;89.29;99562.81;1697197;84;20188;-79
2022/07/17 06:28:33;;;;;;;;;;;;;;;14.36;90.24;99562.08;1696949;84;20161;-81
2022/07/17 06:31:00;;;;;;;;;;;;;;;14.24;91.45;99561.22;1697025;83;20128;-77
2022/07/17 06:33:27;;;;;;;;;;;;;;;14.15;91.79;99564.06;1698027;84;20116;-77
2022/07/17 06:35:53;;;;;;;;;;;;;;;14.08;92.86;99566.56;1697111;84;20205;-70
2022/07/17 06:38:20;;;;;;;;;;;;;;;14.07;93.60;99564.95;1698156;84;20097;-71
2022/07/17 06:40:46;;;;;;;;;;;;;;;14.09;94.47;99560.70;1697531;84;21099;-72
2022/07/17 06:43:12;;;;;;;;;;;;;;;14.17;95.52;99561.20;1698031;84;20152;-72
2022/07/17 06:45:39;;;;;;;;;;;;;;;14.32;95.31;99558.38;1697503;84;20197;-71
2022/07/17 06:48:08;;;;;;;;;;;;;;;14.38;95.17;99557.59;1697693;84;20125;-72
2022/07/17 06:50:35;;;;;;;;;;;;;;;14.42;95.28;99561.32;1697220;83;20184;-76
2022/07/17 06:53:02;;;;;;;;;;;;;;;14.45;94.77;99561.99;1697389;83;21263;-73
2022/07/17 06:55:29;;;;;;;;;;;;;;;14.47;94.42;99560.50;1696937;84;20117;-77
2022/07/17 06:57:55;;;;;;;;;;;;;;;14.51;94.69;99562.01;1697233;84;20188;-75
2022/07/17 07:00:22;;;;;;;;;;;;;;;14.58;95.77;99559.50;1697257;84;20161;-75
2022/07/17 07:02:49;;;;;;;;;;;;;;;14.73;96.01;99557.45;1697595;84;20474;-73
2022/07/17 07:05:15;;;;;;;;;;;;;;;14.98;95.66;99558.87;1697512;84;21095;-75
2022/07/17 07:07:42;;;;;;;;;;;;;;;15.22;93.58;99558.85;1697354;84;20472;-78
2022/07/17 07:10:08;;;;;;;;;;;;;;;15.38;92.98;99556.19;1697763;84;20120;-77
2022/07/17 07:12:36;;;;;;;;;;;;;;;15.52;91.54;99555.26;1697652;84;20487;-81
2022/07/17 07:15:05;;;;;;;;;;;;;;;15.68;88.55;99563.65;1697757;84;20137;-79
2022/07/17 07:17:34;;;;;;;;;;;;;;;15.91;89.22;99563.94;1697740;84;21060;-74
2022/07/17 07:20:01;;;;;;;;;;;;;;;16.21;88.43;99560.23;1678080;84;20117;-79
2022/07/17 07:22:28;;;;;;;;;;;;;;;16.46;84.20;99561.15;1697796;84;20173;-74
2022/07/17 07:24:55;;;;;;;;;;;;;;;16.58;78.14;99567.79;1698447;84;20141;-71
2022/07/17 07:27:22;;;;;;;;;;;;;;;16.57;77.20;99564.21;1697934;83;20174;-87
2022/07/17 07:29:49;;;;;;;;;;;;;;;16.51;77.02;99571.98;1697982;84;21138;-75
2022/07/17 07:32:15;;;;;;;;;;;;;;;16.50;77.84;99568.98;1723244;83;20987;-82
2022/07/17 07:34:42;;;;;;;;;;;;;;;16.60;77.25;99566.85;1724080;83;20121;-77
2022/07/17 07:37:08;;;;;;;;;;;;;;;16.70;72.48;99575.48;1724350;83;20448;-76
2022/07/17 07:39:35;;;;;;;;;;;;;;;16.75;71.37;99571.64;1723910;83;20188;-81
2022/07/17 07:42:02;;;;;;;;;;;;;;;16.75;68.83;99578.58;1723873;83;21861;-74
2022/07/17 07:44:28;;;;;;;;;;;;;;;16.72;70.83;99578.70;1724308;83;20150;-78
2022/07/17 07:46:55;;;;;;;;;;;;;;;16.71;69.77;99581.25;1724491;83;20101;-76
2022/07/17 07:49:21;;;;;;;;;;;;;;;16.67;69.36;99578.16;1724231;83;20464;-77
2022/07/17 07:51:47;;;;;;;;;;;;;;;16.71;69.18;99572.94;1724107;83;20149;-79
2022/07/17 07:54:14;;;;;;;;;;;;;;;16.80;68.45;99574.13;1723795;83;21800;-73
2022/07/17 07:56:41;;;;;;;;;;;;;;;16.94;68.52;99563.98;1724056;83;20093;-73
2022/07/17 07:59:07;;;;;;;;;;;;;;;17.12;66.76;99580.49;1724025;83;20128;-74
2022/07/17 08:01:34;;;;;;;;;;;;;;;17.34;63.52;99579.02;1723909;83;20144;-78
2022/07/17 08:04:01;;;;;;;;;;;;;;;17.53;60.53;99572.72;1724185;83;20120;-75
2022/07/17 08:06:27;;;;;;;;;;;;;;;17.63;60.78;99567.42;1724172;83;21606;-73
2022/07/17 08:08:54;;;;;;;;;;;;;;;17.76;61.73;99566.16;1723965;83;20480;-77
2022/07/17 08:11:21;;;;;;;;;;;;;;;17.93;60.35;99557.96;1723996;83;20162;-81
2022/07/17 08:13:47;;;;;;;;;;;;;;;18.08;57.30;99552.13;1724264;83;20185;-93
2022/07/17 08:16:14;;;;;;;;;;;;;;;18.17;58.11;99564.41;1724044;83;20138;-76
2022/07/17 08:18:40;;;;;;;;;;;;;;;18.29;57.42;99549.78;1724208;83;21132;-76
2022/07/17 08:21:08;;;;;;;;;;;;;;;18.44;55.58;99553.64;1732603;82;20414;-83
2022/07/17 08:23:35;;;;;;;;;;;;;;;18.61;56.16;99562.91;1752064;82;20215;-83
2022/07/17 08:26:02;;;;;;;;;;;;;;;18.82;54.25;99558.91;1753514;82;20179;-83
2022/07/17 08:28:28;;;;;;;;;;;;;;;18.99;56.42;99556.44;1753631;81;20178;-83
2022/07/17 08:30:55;;;;;;;;;;;;;;;19.30;55.21;99562.88;1745796;81;21111;-81
2022/07/17 08:33:21;;;;;;;;;;;;;;;19.52;54.73;99557.08;1726339;82;20142;-87
2022/07/17 08:35:47;;;;;;;;;;;;;;;19.81;55.23;99554.08;1720186;83;20168;-84
2022/07/17 08:38:14;;;;;;;;;;;;;;;20.07;53.17;99562.39;1710705;83;20173;-91
2022/07/17 08:40:43;;;;;;;;;;;;;;;20.18;53.15;99564.72;1678054;84;20420;-88
2022/07/17 08:43:10;;;;;;;;;;;;;;;20.30;53.08;99561.66;1698086;84;21186;-88
2022/07/17 08:45:39;;;;;;;;;;;;;;;20.56;54.61;99557.20;1698218;83;20129;-84
2022/07/17 08:48:05;;;;;;;;;;;;;;;20.98;54.92;99561.77;1697734;84;20097;-85
2022/07/17 08:50:34;;;;;;;;;;;;;;;21.45;50.40;99558.77;1709434;82;20179;-87
2022/07/17 08:53:01;;;;;;;;;;;;;;;21.58;47.83;99562.84;1722281;83;20223;-87
2022/07/17 08:55:31;;;;;;;;;;;;;;;21.43;49.19;99558.35;1723011;83;21214;-85
2022/07/17 08:57:57;;;;;;;;;;;;;;;21.26;47.32;99547.88;1722707;83;20167;-81
2022/07/17 09:00:24;;;;;;;;;;;;;;;21.14;47.71;99560.13;1694593;83;20201;-78
2022/07/17 09:03:04;;;;;;;;;;;;;;;21.14;47.90;99567.69;1723023;83;20205;-76
2022/07/17 09:05:35;;;;;;;;;;;;;;;21.14;47.79;99562.11;1722884;83;20104;-77
2022/07/17 09:08:03;;;;;;;;;;;;;;;21.35;47.50;99556.73;1719398;83;21017;-79
2022/07/17 09:10:43;;;;;;;;;;;;;;;21.77;46.99;99567.95;1710910;83;20128;-76
2022/07/17 09:13:23;;;;;;;;;;;;;;;21.78;45.50;99561.17;1699196;81;20121;-80
2022/07/17 09:15:52;;;;;;;;;;;;;;;21.66;49.82;99562.30;1724617;83;20136;-80
2022/07/17 09:18:18;;;;;;;;;;;;;;;21.27;45.23;99557.27;1726623;83;20178;-78
2022/07/17 09:20:56;;;;;;;;;;;;;;;21.00;48.31;99562.19;1726794;83;21511;-76
2022/07/17 09:23:24;;;;;;;;;;;;;;;21.14;47.55;99558.72;1726896;83;20150;-77
2022/07/17 09:25:52;;;;;;;;;;;;;;;21.14;46.40;99564.90;1726975;83;20180;-74
2022/07/17 09:28:20;;;;;;;;;;;;;;;21.06;47.77;99559.25;1726499;82;20191;-77
2022/07/17 09:30:48;;;;;;;;;;;;;;;21.15;47.46;99553.94;1726905;82;20486;-78
2022/07/17 09:33:17;;;;;;;;;;;;;;;21.28;46.83;99549.69;1726677;83;21829;-76
2022/07/17 09:35:47;;;;;;;;;;;;;;;21.39;45.51;99563.11;1726771;82;20115;-77
2022/07/17 09:38:25;;;;;;;;;;;;;;;21.65;47.04;99567.68;1726151;83;20150;-75
2022/07/17 09:41:09;;;;;;;;;;;;;;;22.05;45.04;99559.72;1727295;83;20493;-74
2022/07/17 09:43:47;;;;;;;;;;;;;;;22.42;44.27;99555.27;1726776;83;20139;-76
2022/07/17 09:46:18;;;;;;;;;;;;;;;22.33;44.39;99555.64;1727364;83;21751;-78
2022/07/17 09:48:49;;;;;;;;;;;;;;;22.05;44.66;99560.52;1726981;83;20083;-78
2022/07/17 09:51:19;;;;;;;;;;;;;;;21.79;45.80;99562.78;1727153;83;20122;-78
2022/07/17 09:53:47;;;;;;;;;;;;;;;21.61;45.85;99562.66;1726827;81;20171;-78
2022/07/17 09:56:16;;;;;;;;;;;;;;;21.57;46.76;99552.06;1726925;83;20175;-82
2022/07/17 09:58:51;;;;;;;;;;;;;;;21.77;44.77;99556.78;1726918;83;21180;-81
2022/07/17 10:01:18;;;;;;;;;;;;;;;21.79;46.01;99565.57;1726727;83;20122;-77
2022/07/17 10:03:45;;;;;;;;;;;;;;;21.72;44.15;99573.31;1727089;81;20175;-75
2022/07/17 10:06:11;;;;;;;;;;;;;;;21.41;44.76;99569.11;1726936;83;20126;-76
2022/07/17 10:08:39;;;;;;;;;;;;;;;21.03;45.06;99564.21;1726828;83;20302;-77
2022/07/17 10:11:08;;;;;;;;;;;;;;;20.82;47.38;99547.27;1726658;83;20549;-77
2022/07/17 10:13:42;;;;;;;;;;;;;;;20.81;46.75;99561.02;1726556;83;20492;-80
2022/07/17 10:16:10;;;;;;;;;;;;;;;21.00;47.14;99558.00;1726524;83;20194;-74
2022/07/17 10:18:44;;;;;;;;;;;;;;;21.39;49.12;99558.92;1725887;83;20163;-78
2022/07/17 10:21:14;;;;;;;;;;;;;;;21.67;45.66;99559.71;1726612;83;20190;-77
2022/07/17 10:23:48;;;;;;;;;;;;;;;21.77;45.77;99569.34;1726417;83;21867;-77
2022/07/17 10:26:15;;;;;;;;;;;;;;;21.91;44.41;99556.86;1725915;83;20202;-74
2022/07/17 10:28:43;;;;;;;;;;;;;;;22.09;45.54;99561.94;1725857;83;20616;-73
2022/07/17 10:31:10;;;;;;;;;;;;;;;22.24;44.35;99551.61;1726839;83;20173;-73
2022/07/17 10:33:36;;;;;;;;;;;;;;;22.55;44.53;99550.09;1726923;83;20143;-73
2022/07/17 10:36:03;;;;;;;;;;;;;;;22.81;43.56;99555.97;1726445;82;21115;-73
2022/07/17 10:38:30;;;;;;;;;;;;;;;22.89;42.43;99544.38;1726942;83;20106;-73
2022/07/17 10:41:03;;;;;;;;;;;;;;;22.67;42.37;99544.12;1706109;83;20369;-71
2022/07/17 10:43:43;;;;;;;;;;;;;;;22.19;42.91;99547.20;1721191;81;20099;-72
2022/07/17 10:46:09;;;;;;;;;;;;;;;21.66;43.84;99550.53;1726416;83;20488;-72
2022/07/17 10:48:38;;;;;;;;;;;;;;;21.18;44.20;99554.56;1719509;82;21086;-71
2022/07/17 10:51:05;;;;;;;;;;;;;;;20.83;45.06;99546.68;1681484;84;20177;-72
2022/07/17 10:53:32;;;;;;;;;;;;;;;20.56;45.27;99551.02;1709396;84;20193;-70
2022/07/17 10:56:05;;;;;;;;;;;;;;;20.46;46.73;99560.08;1709334;82;20189;-72
2022/07/17 10:58:40;;;;;;;;;;;;;;;20.43;47.94;99565.83;1709735;82;20181;-72
2022/07/17 11:01:18;;;;;;;;;;;;;;;20.70;48.39;99564.31;1709156;83;21219;-72
2022/07/17 11:03:47;;;;;;;;;;;;;;;21.22;49.12;99579.16;1709218;82;20165;-71
2022/07/17 11:06:18;;;;;;;;;;;;;;;21.55;50.03;99574.80;1709415;82;20133;-72
2022/07/17 11:08:55;;;;;;;;;;;;;;;21.81;49.05;99581.34;1709785;84;20427;-72
2022/07/17 11:11:23;;;;;;;;;;;;;;;21.99;48.68;99578.83;1709385;84;20178;-71
2022/07/17 11:13:50;;;;;;;;;;;;;;;22.14;48.91;99577.53;1709426;82;21127;-72
2022/07/17 11:16:27;;;;;;;;;;;;;;;21.98;47.99;99577.23;1709250;83;20144;-77
2022/07/17 11:18:54;;;;;;;;;;;;;;;22.11;50.07;99565.14;1709175;84;20209;-75
2022/07/17 11:21:20;;;;;;;;;;;;;;;22.36;48.11;99561.84;1709777;83;20213;-81
2022/07/17 11:23:51;;;;;;;;;;;;;;;22.32;46.94;99574.22;1710026;83;20515;-81
2022/07/17 11:26:20;;;;;;;;;;;;;;;21.97;47.15;99584.01;1709855;82;21209;-78
2022/07/17 11:28:47;;;;;;;;;;;;;;;21.39;47.31;99571.48;1697023;84;20271;-81
2022/07/17 11:31:23;;;;;;;;;;;;;;;20.89;48.42;99579.42;1697242;83;20471;-83
2022/07/17 11:33:55;;;;;;;;;;;;;;;20.54;50.05;99572.11;1697082;84;20432;-81
2022/07/17 11:36:31;;;;;;;;;;;;;;;20.33;52.10;99584.59;1697026;84;20244;-74
2022/07/17 11:38:59;;;;;;;;;;;;;;;20.07;51.54;99567.37;1696426;84;21142;-84
2022/07/17 11:41:46;;;;;;;;;;;;;;;19.96;52.40;99571.20;1696951;83;20089;-77
2022/07/17 11:44:16;;;;;;;;;;;;;;;19.89;53.47;99573.89;1697003;83;20285;-78
2022/07/17 11:46:45;;;;;;;;;;;;;;;20.19;53.19;99571.10;1696492;84;20184;-79
2022/07/17 11:49:30;;;;;;;;;;;;;;;20.63;51.16;99568.42;1696900;83;20447;-88
2022/07/17 11:52:15;;;;;;;;;;;;;;;20.76;49.25;99561.39;1696916;84;21859;-80
2022/07/17 11:54:54;;;;;;;;;;;;;;;20.80;48.18;99564.22;1696978;84;20987;-88
2022/07/17 11:57:23;;;;;;;;;;;;;;;20.97;46.60;99562.96;1697761;84;20149;-80
2022/07/17 11:59:51;;;;;;;;;;;;;;;21.27;47.90;99561.45;1697208;84;20510;-78
2022/07/17 12:02:24;;;;;;;;;;;;;;;21.76;46.85;99564.36;1697314;84;20202;-84
2022/07/17 12:04:56;;;;;;;;;;;;;;;21.97;45.60;99554.66;1697199;84;21130;-77
2022/07/17 12:07:23;;;;;;;;;;;;;;;21.88;45.89;99559.03;1696484;84;20989;-79
2022/07/17 12:09:49;;;;;;;;;;;;;;;21.84;46.25;99567.40;1696767;84;20177;-77
2022/07/17 12:12:23;;;;;;;;;;;;;;;21.94;46.04;99565.26;1696658;83;20379;-78
2022/07/17 12:14:54;;;;;;;;;;;;;;;21.84;45.01;99575.78;1697082;84;20181;-77
2022/07/17 12:17:21;;;;;;;;;;;;;;;21.68;45.27;99573.88;1696711;84;21104;-78
2022/07/17 12:19:48;;;;;;;;;;;;;;;21.44;43.84;99578.11;1696351;84;20468;-85
2022/07/17 12:22:14;;;;;;;;;;;;;;;21.26;44.06;99599.53;1696815;84;20177;-78
2022/07/17 12:24:43;;;;;;;;;;;;;;;21.21;47.61;99599.29;1697072;84;20198;-80
2022/07/17 12:27:13;;;;;;;;;;;;;;;20.90;48.59;99599.76;1713886;83;20493;-80
2022/07/17 12:29:43;;;;;;;;;;;;;;;20.07;50.29;99614.75;1696873;84;21243;-82
2022/07/17 12:32:12;;;;;;;;;;;;;;;19.42;52.44;99632.26;1704520;83;20132;-84
2022/07/17 12:34:46;;;;;;;;;;;;;;;18.96;53.30;99621.16;1722885;83;20151;-86
2022/07/17 12:37:13;;;;;;;;;;;;;;;18.58;54.37;99634.50;1722790;83;20192;-82
2022/07/17 12:39:40;;;;;;;;;;;;;;;18.20;54.69;99626.19;1722945;83;20188;-75
2022/07/17 12:42:07;;;;;;;;;;;;;;;17.97;56.73;99628.86;1723396;82;21502;-77
2022/07/17 12:44:34;;;;;;;;;;;;;;;17.85;57.97;99633.98;1722984;82;20120;-72
2022/07/17 12:47:00;;;;;;;;;;;;;;;17.75;58.75;99626.22;1723359;82;20224;-72
2022/07/17 12:49:27;;;;;;;;;;;;;;;17.67;58.55;99642.48;1722886;83;20172;-73